Check out our new PWSWeather beta!
PWSweather.com
Personal Weather Stations
Station Observations
PEISSEN1
PeissenbergDE

PeissenbergDE

Lat: 47.791845, Lon: 11.064121

Elevation: 1929

Station Type: Davis Vantage Pro 2

wetter-peissenberg.de

High Low Average
Temperature 39.7°F4.3°C 31.6°F-0.2°C 36.0°F2.2°C
Dew Point 36.0°F2.2°C 29.3°F-1.5°C 33.1°F0.6°C
Winds 7.9 mph 12.7 kmh Calm Calm 2.0 mph SW3.2 kmh SW
Wind Gusts 14.0 mph22.5 kmh -- 4.0 mph6.4 kmh
Humidity 94% 81% 89%
Pressure 30.54 in1034.2 mb 30.32 in1026.8 mb -
Precipitation 0.49 in12.4 mm - -
Hour Temp Dew Point Humidity Winds Wind Gusts Pressure Precip Precip Rate Daily Precip Total
12:00 AM 35.2°F1.8°C 32.9°F0.5°C 91% Calm Calm -- 30.53 in1033.9 mb 0.00 in0.0 mm 0.00 in0.0 mm 0.49 in12.4 mm
12:10 AM 34.9°F1.6°C 32.3°F0.2°C 90% Calm Calm -- 30.53 in1033.9 mb 0.00 in0.0 mm 0.00 in0.0 mm 0.49 in12.4 mm
12:20 AM 34.5°F1.4°C 32.2°F0.1°C 91% Calm Calm -- 30.53 in1033.9 mb 0.00 in0.0 mm 0.00 in0.0 mm 0.49 in12.4 mm
02:00 AM 31.8°F-0.1°C 29.5°F-1.4°C 91% Calm Calm -- 30.54 in1034.2 mb 0.00 in0.0 mm 0.00 in0.0 mm 0.00 in0.0 mm
02:10 AM 31.6°F-0.2°C 29.3°F-1.5°C 91% Calm Calm -- 30.54 in1034.2 mb 0.00 in0.0 mm 0.00 in0.0 mm 0.00 in0.0 mm
02:20 AM 31.6°F-0.2°C 29.6°F-1.3°C 92% Calm Calm -- 30.54 in1034.2 mb 0.00 in0.0 mm 0.00 in0.0 mm 0.00 in0.0 mm
04:00 AM 33.6°F0.9°C 31.8°F-0.1°C 93% 0.6 mph SSW1.0 kmh SSW 2.0 mph3.2 kmh 30.51 in1033.2 mb 0.00 in0.0 mm 0.00 in0.0 mm 0.00 in0.0 mm
04:10 AM 33.4°F0.8°C 31.6°F-0.2°C 93% 0.3 mph SW0.5 kmh SW 2.0 mph3.2 kmh 30.50 in1032.8 mb 0.00 in0.0 mm 0.00 in0.0 mm 0.00 in0.0 mm
04:20 AM 33.4°F0.8°C 31.6°F-0.2°C 93% Calm Calm -- 30.50 in1032.8 mb 0.00 in0.0 mm 0.00 in0.0 mm 0.00 in0.0 mm
06:00 AM 32.5°F0.3°C 31.0°F-0.6°C 94% 0.9 mph SW1.4 kmh SW 2.0 mph3.2 kmh 30.47 in1031.8 mb 0.00 in0.0 mm 0.00 in0.0 mm 0.00 in0.0 mm
06:10 AM 32.5°F0.3°C 31.0°F-0.6°C 94% 0.2 mph N0.3 kmh N 2.0 mph3.2 kmh 30.47 in1031.8 mb 0.00 in0.0 mm 0.00 in0.0 mm 0.00 in0.0 mm
06:20 AM 32.4°F0.2°C 30.8°F-0.7°C 94% 0.6 mph SW1.0 kmh SW 2.0 mph3.2 kmh 30.47 in1031.8 mb 0.00 in0.0 mm 0.00 in0.0 mm 0.00 in0.0 mm
08:00 AM 32.4°F0.2°C 30.8°F-0.7°C 94% Calm Calm -- 30.45 in1031.2 mb 0.00 in0.0 mm 0.00 in0.0 mm 0.00 in0.0 mm
08:10 AM 32.4°F0.2°C 30.8°F-0.7°C 94% Calm Calm -- 30.45 in1031.2 mb 0.00 in0.0 mm 0.00 in0.0 mm 0.00 in0.0 mm
08:20 AM 32.2°F0.1°C 30.7°F-0.7°C 94% Calm Calm -- 30.45 in1031.2 mb 0.00 in0.0 mm 0.00 in0.0 mm 0.00 in0.0 mm
10:00 AM 34.2°F1.2°C 32.6°F0.3°C 94% 0.9 mph SSE1.4 kmh SSE 3.0 mph4.8 kmh 30.45 in1031.2 mb 0.00 in0.0 mm 0.00 in0.0 mm 0.00 in0.0 mm
10:10 AM 34.9°F1.6°C 33.3°F0.7°C 94% 0.4 mph SSE0.6 kmh SSE 1.0 mph1.6 kmh 30.45 in1031.2 mb 0.00 in0.0 mm 0.00 in0.0 mm 0.00 in0.0 mm
10:20 AM 35.1°F1.7°C 33.5°F0.8°C 94% 1.1 mph SSE1.8 kmh SSE 3.0 mph4.8 kmh 30.45 in1031.2 mb 0.00 in0.0 mm 0.00 in0.0 mm 0.00 in0.0 mm
12:00 PM 37.6°F3.1°C 34.9°F1.6°C 90% 0.8 mph SSW1.3 kmh SSW 4.0 mph6.4 kmh 30.42 in1030.1 mb 0.00 in0.0 mm 0.00 in0.0 mm 0.00 in0.0 mm
12:10 PM 37.6°F3.1°C 34.6°F1.4°C 89% Calm Calm -- 30.41 in1029.8 mb 0.00 in0.0 mm 0.00 in0.0 mm 0.00 in0.0 mm
12:20 PM 37.8°F3.2°C 35.1°F1.7°C 90% 1.9 mph SW3.1 kmh SW 6.0 mph9.7 kmh 30.40 in1029.5 mb 0.00 in0.0 mm 0.00 in0.0 mm 0.00 in0.0 mm
02:00 PM 39.0°F3.9°C 35.8°F2.1°C 88% 0.1 mph W0.2 kmh W 1.0 mph1.6 kmh 30.40 in1029.5 mb 0.00 in0.0 mm 0.00 in0.0 mm 0.00 in0.0 mm
02:10 PM 39.0°F3.9°C 35.8°F2.1°C 88% 0.3 mph WNW0.5 kmh WNW 2.0 mph3.2 kmh 30.40 in1029.5 mb 0.00 in0.0 mm 0.00 in0.0 mm 0.00 in0.0 mm
02:20 PM 39.2°F4.0°C 36.0°F2.2°C 88% 1.1 mph W1.8 kmh W 4.0 mph6.4 kmh 30.40 in1029.5 mb 0.00 in0.0 mm 0.00 in0.0 mm 0.00 in0.0 mm
04:00 PM 39.0°F3.9°C 35.2°F1.8°C 86% 2.4 mph N3.9 kmh N 7.0 mph11.3 kmh 30.37 in1028.4 mb 0.00 in0.0 mm 0.00 in0.0 mm 0.00 in0.0 mm
04:10 PM 39.0°F3.9°C 35.2°F1.8°C 86% 2.7 mph SW4.3 kmh SW 7.0 mph11.3 kmh 30.38 in1028.8 mb 0.00 in0.0 mm 0.00 in0.0 mm 0.00 in0.0 mm
04:20 PM 38.8°F3.8°C 35.0°F1.7°C 86% 1.2 mph WSW1.9 kmh WSW 3.0 mph4.8 kmh 30.38 in1028.8 mb 0.00 in0.0 mm 0.00 in0.0 mm 0.00 in0.0 mm
06:00 PM 39.4°F4.1°C 34.4°F1.3°C 82% 6.6 mph WNW10.6 kmh WNW 12.0 mph19.3 kmh 30.36 in1028.1 mb 0.00 in0.0 mm 0.00 in0.0 mm 0.00 in0.0 mm
06:10 PM 39.7°F4.3°C 34.4°F1.3°C 81% 7.9 mph WSW12.7 kmh WSW 14.0 mph22.5 kmh 30.37 in1028.4 mb 0.00 in0.0 mm 0.00 in0.0 mm 0.00 in0.0 mm
06:20 PM 39.6°F4.2°C 34.5°F1.4°C 82% 4.5 mph ESE7.2 kmh ESE 12.0 mph19.3 kmh 30.36 in1028.1 mb 0.00 in0.0 mm 0.00 in0.0 mm 0.00 in0.0 mm
08:00 PM 39.0°F3.9°C 34.6°F1.4°C 84% 3.6 mph N5.8 kmh N 7.0 mph11.3 kmh 30.36 in1028.1 mb 0.00 in0.0 mm 0.00 in0.0 mm 0.00 in0.0 mm
08:10 PM 39.0°F3.9°C 34.6°F1.4°C 84% 4.3 mph W6.9 kmh W 9.0 mph14.5 kmh 30.35 in1027.8 mb 0.00 in0.0 mm 0.00 in0.0 mm 0.00 in0.0 mm
08:20 PM 38.8°F3.8°C 34.7°F1.5°C 85% 6.5 mph W10.5 kmh W 12.0 mph19.3 kmh 30.36 in1028.1 mb 0.00 in0.0 mm 0.00 in0.0 mm 0.00 in0.0 mm
10:00 PM 38.5°F3.6°C 34.4°F1.3°C 85% 5.9 mph N9.5 kmh N 11.0 mph17.7 kmh 30.33 in1027.1 mb 0.00 in0.0 mm 0.00 in0.0 mm 0.00 in0.0 mm
10:10 PM 38.3°F3.5°C 34.5°F1.4°C 86% 5.2 mph WSW8.4 kmh WSW 10.0 mph16.1 kmh 30.32 in1026.8 mb 0.00 in0.0 mm 0.00 in0.0 mm 0.00 in0.0 mm
10:20 PM 38.1°F3.4°C 34.3°F1.3°C 86% 2.4 mph NNW3.9 kmh NNW 9.0 mph14.5 kmh 30.33 in1027.1 mb 0.00 in0.0 mm 0.00 in0.0 mm 0.01 in0.3 mm